sensor_id;sensor_type;location;lat;lon;timestamp;P1;durP1;ratioP1;P2;durP2;ratioP2
45326;SDS011;31062;49.678;24.560;2023-01-08T00:01:10;16.95;;;10.68;;
45326;SDS011;31062;49.678;24.560;2023-01-08T00:03:56;16.33;;;9.45;;
45326;SDS011;31062;49.678;24.560;2023-01-08T00:06:42;13.93;;;9.38;;
45326;SDS011;31062;49.678;24.560;2023-01-08T00:09:28;13.95;;;8.77;;
45326;SDS011;31062;49.678;24.560;2023-01-08T00:12:13;19.35;;;9.57;;
45326;SDS011;31062;49.678;24.560;2023-01-08T00:14:59;20.23;;;10.38;;
45326;SDS011;31062;49.678;24.560;2023-01-08T00:17:44;15.35;;;9.82;;
45326;SDS011;31062;49.678;24.560;2023-01-08T00:20:30;14.52;;;9.02;;
45326;SDS011;31062;49.678;24.560;2023-01-08T00:23:16;17.52;;;9.70;;
45326;SDS011;31062;49.678;24.560;2023-01-08T00:26:04;17.45;;;8.48;;
45326;SDS011;31062;49.678;24.560;2023-01-08T00:28:51;15.98;;;8.68;;
45326;SDS011;31062;49.678;24.560;2023-01-08T00:31:37;14.90;;;9.07;;
45326;SDS011;31062;49.678;24.560;2023-01-08T00:34:22;16.77;;;9.30;;
45326;SDS011;31062;49.678;24.560;2023-01-08T00:37:08;13.60;;;8.57;;
45326;SDS011;31062;49.678;24.560;2023-01-08T00:39:54;16.67;;;8.93;;
45326;SDS011;31062;49.678;24.560;2023-01-08T00:42:39;14.80;;;8.52;;
45326;SDS011;31062;49.678;24.560;2023-01-08T00:45:25;16.23;;;8.98;;
45326;SDS011;31062;49.678;24.560;2023-01-08T00:48:10;13.65;;;8.07;;
45326;SDS011;31062;49.678;24.560;2023-01-08T00:50:56;16.70;;;8.70;;
45326;SDS011;31062;49.678;24.560;2023-01-08T00:53:41;14.80;;;8.15;;
45326;SDS011;31062;49.678;24.560;2023-01-08T00:56:27;14.75;;;8.00;;
45326;SDS011;31062;49.678;24.560;2023-01-08T00:59:12;16.23;;;8.10;;
45326;SDS011;31062;49.678;24.560;2023-01-08T01:01:58;14.15;;;8.05;;
45326;SDS011;31062;49.678;24.560;2023-01-08T01:04:43;13.52;;;8.02;;
45326;SDS011;31062;49.678;24.560;2023-01-08T01:07:29;11.45;;;7.82;;
45326;SDS011;31062;49.678;24.560;2023-01-08T01:10:15;11.55;;;7.15;;
45326;SDS011;31062;49.678;24.560;2023-01-08T01:13:01;14.65;;;7.88;;
45326;SDS011;31062;49.678;24.560;2023-01-08T01:16:00;16.80;;;7.90;;
45326;SDS011;31062;49.678;24.560;2023-01-08T01:18:46;13.73;;;7.93;;
45326;SDS011;31062;49.678;24.560;2023-01-08T01:21:32;13.35;;;7.72;;
45326;SDS011;31062;49.678;24.560;2023-01-08T01:24:18;12.25;;;7.80;;
45326;SDS011;31062;49.678;24.560;2023-01-08T01:27:06;14.95;;;8.30;;
45326;SDS011;31062;49.678;24.560;2023-01-08T01:29:51;12.63;;;7.65;;
45326;SDS011;31062;49.678;24.560;2023-01-08T01:32:37;13.02;;;8.45;;
45326;SDS011;31062;49.678;24.560;2023-01-08T01:35:23;14.23;;;8.05;;
45326;SDS011;31062;49.678;24.560;2023-01-08T01:38:08;13.50;;;7.65;;
45326;SDS011;31062;49.678;24.560;2023-01-08T01:40:54;13.93;;;7.53;;
45326;SDS011;31062;49.678;24.560;2023-01-08T01:43:42;12.65;;;6.72;;
45326;SDS011;31062;49.678;24.560;2023-01-08T01:46:38;10.60;;;6.45;;
45326;SDS011;31062;49.678;24.560;2023-01-08T01:49:24;10.02;;;5.43;;
45326;SDS011;31062;49.678;24.560;2023-01-08T01:52:09;8.65;;;6.10;;
45326;SDS011;31062;49.678;24.560;2023-01-08T01:54:55;10.20;;;6.53;;
45326;SDS011;31062;49.678;24.560;2023-01-08T01:57:48;10.38;;;6.00;;
45326;SDS011;31062;49.678;24.560;2023-01-08T02:00:39;11.68;;;6.55;;
45326;SDS011;31062;49.678;24.560;2023-01-08T02:03:28;8.45;;;5.63;;
45326;SDS011;31062;49.678;24.560;2023-01-08T02:09:48;9.70;;;5.82;;
45326;SDS011;31062;49.678;24.560;2023-01-08T02:12:52;7.93;;;5.63;;
45326;SDS011;31062;49.678;24.560;2023-01-08T02:15:47;10.13;;;5.18;;
45326;SDS011;31062;49.678;24.560;2023-01-08T02:18:45;12.80;;;6.22;;
45326;SDS011;31062;49.678;24.560;2023-01-08T02:27:46;10.55;;;5.97;;
45326;SDS011;31062;49.678;24.560;2023-01-08T02:30:35;14.70;;;6.60;;
45326;SDS011;31062;49.678;24.560;2023-01-08T02:33:21;9.98;;;5.85;;
45326;SDS011;31062;49.678;24.560;2023-01-08T02:36:19;10.85;;;5.82;;
45326;SDS011;31062;49.678;24.560;2023-01-08T02:51:22;15.43;;;7.35;;
45326;SDS011;31062;49.678;24.560;2023-01-08T02:54:12;14.48;;;6.63;;
45326;SDS011;31062;49.678;24.560;2023-01-08T02:57:03;12.60;;;5.13;;
45326;SDS011;31062;49.678;24.560;2023-01-08T02:59:53;11.80;;;6.32;;
45326;SDS011;31062;49.678;24.560;2023-01-08T03:02:40;9.60;;;6.38;;
45326;SDS011;31062;49.678;24.560;2023-01-08T03:05:27;14.13;;;6.47;;
45326;SDS011;31062;49.678;24.560;2023-01-08T03:08:12;15.45;;;7.53;;
45326;SDS011;31062;49.678;24.560;2023-01-08T03:11:05;15.00;;;7.78;;
45326;SDS011;31062;49.678;24.560;2023-01-08T03:16:58;15.23;;;8.15;;
45326;SDS011;31062;49.678;24.560;2023-01-08T03:19:52;11.90;;;7.15;;
45326;SDS011;31062;49.678;24.560;2023-01-08T03:22:41;11.65;;;6.35;;
45326;SDS011;31062;49.678;24.560;2023-01-08T03:25:30;10.50;;;6.75;;
45326;SDS011;31062;49.678;24.560;2023-01-08T03:28:22;16.50;;;7.75;;
45326;SDS011;31062;49.678;24.560;2023-01-08T03:31:14;14.70;;;7.18;;
45326;SDS011;31062;49.678;24.560;2023-01-08T03:34:01;10.88;;;5.93;;
45326;SDS011;31062;49.678;24.560;2023-01-08T03:36:49;11.07;;;6.70;;
45326;SDS011;31062;49.678;24.560;2023-01-08T03:39:48;13.25;;;7.18;;
45326;SDS011;31062;49.678;24.560;2023-01-08T03:42:48;10.88;;;6.20;;
45326;SDS011;31062;49.678;24.560;2023-01-08T03:45:34;10.00;;;5.22;;
45326;SDS011;31062;49.678;24.560;2023-01-08T03:48:21;12.50;;;6.85;;
45326;SDS011;31062;49.678;24.560;2023-01-08T03:51:09;10.75;;;6.45;;
45326;SDS011;31062;49.678;24.560;2023-01-08T03:53:55;9.02;;;5.72;;
45326;SDS011;31062;49.678;24.560;2023-01-08T03:56:44;11.43;;;6.20;;
45326;SDS011;31062;49.678;24.560;2023-01-08T03:59:30;12.35;;;6.97;;
45326;SDS011;31062;49.678;24.560;2023-01-08T04:02:16;12.23;;;6.57;;
45326;SDS011;31062;49.678;24.560;2023-01-08T04:05:01;12.02;;;6.82;;
45326;SDS011;31062;49.678;24.560;2023-01-08T04:07:47;9.65;;;5.05;;
45326;SDS011;31062;49.678;24.560;2023-01-08T04:10:33;7.95;;;4.43;;
45326;SDS011;31062;49.678;24.560;2023-01-08T04:13:18;8.00;;;5.00;;
45326;SDS011;31062;49.678;24.560;2023-01-08T04:16:04;8.13;;;5.40;;
45326;SDS011;31062;49.678;24.560;2023-01-08T04:18:50;11.95;;;4.90;;
45326;SDS011;31062;49.678;24.560;2023-01-08T04:21:35;7.43;;;4.18;;
45326;SDS011;31062;49.678;24.560;2023-01-08T04:24:21;8.45;;;4.72;;
45326;SDS011;31062;49.678;24.560;2023-01-08T04:27:06;5.93;;;3.55;;
45326;SDS011;31062;49.678;24.560;2023-01-08T04:29:52;10.55;;;5.40;;
45326;SDS011;31062;49.678;24.560;2023-01-08T04:32:37;9.65;;;5.65;;
45326;SDS011;31062;49.678;24.560;2023-01-08T04:35:23;7.90;;;4.25;;
45326;SDS011;31062;49.678;24.560;2023-01-08T04:38:09;12.48;;;5.35;;
45326;SDS011;31062;49.678;24.560;2023-01-08T04:40:56;7.53;;;4.65;;
45326;SDS011;31062;49.678;24.560;2023-01-08T04:43:43;8.90;;;4.53;;
45326;SDS011;31062;49.678;24.560;2023-01-08T04:46:28;10.23;;;5.20;;
45326;SDS011;31062;49.678;24.560;2023-01-08T04:49:14;7.55;;;5.15;;
45326;SDS011;31062;49.678;24.560;2023-01-08T04:51:59;8.32;;;5.47;;
45326;SDS011;31062;49.678;24.560;2023-01-08T04:54:44;8.10;;;5.18;;
45326;SDS011;31062;49.678;24.560;2023-01-08T04:57:30;6.25;;;4.03;;
45326;SDS011;31062;49.678;24.560;2023-01-08T05:00:15;7.55;;;3.88;;
45326;SDS011;31062;49.678;24.560;2023-01-08T05:03:01;9.43;;;4.82;;
45326;SDS011;31062;49.678;24.560;2023-01-08T05:05:47;9.23;;;5.35;;
45326;SDS011;31062;49.678;24.560;2023-01-08T05:08:34;8.15;;;4.57;;
45326;SDS011;31062;49.678;24.560;2023-01-08T05:11:19;8.18;;;5.25;;
45326;SDS011;31062;49.678;24.560;2023-01-08T05:14:06;7.88;;;5.22;;
45326;SDS011;31062;49.678;24.560;2023-01-08T05:16:52;7.38;;;4.70;;
45326;SDS011;31062;49.678;24.560;2023-01-08T05:19:37;6.50;;;4.50;;
45326;SDS011;31062;49.678;24.560;2023-01-08T05:22:23;9.77;;;4.60;;
45326;SDS011;31062;49.678;24.560;2023-01-08T05:25:08;5.40;;;4.15;;
45326;SDS011;31062;49.678;24.560;2023-01-08T05:27:54;7.97;;;4.72;;
45326;SDS011;31062;49.678;24.560;2023-01-08T05:30:39;6.20;;;4.00;;
45326;SDS011;31062;49.678;24.560;2023-01-08T05:33:25;8.90;;;5.43;;
45326;SDS011;31062;49.678;24.560;2023-01-08T05:36:11;6.72;;;4.70;;
45326;SDS011;31062;49.678;24.560;2023-01-08T05:38:57;9.65;;;4.57;;
45326;SDS011;31062;49.678;24.560;2023-01-08T05:41:42;6.95;;;4.75;;
45326;SDS011;31062;49.678;24.560;2023-01-08T05:44:27;7.82;;;4.70;;
45326;SDS011;31062;49.678;24.560;2023-01-08T05:47:14;5.38;;;3.63;;
45326;SDS011;31062;49.678;24.560;2023-01-08T05:50:00;6.28;;;4.60;;
45326;SDS011;31062;49.678;24.560;2023-01-08T05:52:45;8.82;;;4.32;;
45326;SDS011;31062;49.678;24.560;2023-01-08T05:55:31;6.35;;;4.03;;
45326;SDS011;31062;49.678;24.560;2023-01-08T05:58:16;5.00;;;3.50;;
45326;SDS011;31062;49.678;24.560;2023-01-08T06:01:07;7.30;;;4.78;;
45326;SDS011;31062;49.678;24.560;2023-01-08T06:03:54;4.90;;;3.47;;
45326;SDS011;31062;49.678;24.560;2023-01-08T06:06:40;8.50;;;4.05;;
45326;SDS011;31062;49.678;24.560;2023-01-08T06:09:26;9.65;;;6.85;;
45326;SDS011;31062;49.678;24.560;2023-01-08T06:12:11;7.53;;;4.80;;
45326;SDS011;31062;49.678;24.560;2023-01-08T06:14:57;7.00;;;4.70;;
45326;SDS011;31062;49.678;24.560;2023-01-08T06:17:42;7.72;;;5.13;;
45326;SDS011;31062;49.678;24.560;2023-01-08T06:20:28;7.47;;;4.00;;
45326;SDS011;31062;49.678;24.560;2023-01-08T06:23:15;11.27;;;7.82;;
45326;SDS011;31062;49.678;24.560;2023-01-08T06:26:01;6.00;;;3.97;;
45326;SDS011;31062;49.678;24.560;2023-01-08T06:28:48;5.60;;;3.53;;
45326;SDS011;31062;49.678;24.560;2023-01-08T06:31:33;7.13;;;4.00;;
45326;SDS011;31062;49.678;24.560;2023-01-08T06:34:20;7.28;;;4.13;;
45326;SDS011;31062;49.678;24.560;2023-01-08T06:37:06;11.02;;;5.25;;
45326;SDS011;31062;49.678;24.560;2023-01-08T06:39:51;11.07;;;4.97;;
45326;SDS011;31062;49.678;24.560;2023-01-08T06:42:37;4.65;;;3.45;;
45326;SDS011;31062;49.678;24.560;2023-01-08T06:45:23;11.93;;;5.95;;
45326;SDS011;31062;49.678;24.560;2023-01-08T06:48:09;8.05;;;5.43;;
45326;SDS011;31062;49.678;24.560;2023-01-08T06:50:58;11.30;;;7.15;;
45326;SDS011;31062;49.678;24.560;2023-01-08T06:53:46;9.20;;;6.22;;
45326;SDS011;31062;49.678;24.560;2023-01-08T06:56:32;10.43;;;5.82;;
45326;SDS011;31062;49.678;24.560;2023-01-08T06:59:36;8.77;;;5.25;;
45326;SDS011;31062;49.678;24.560;2023-01-08T07:02:25;7.40;;;5.25;;
45326;SDS011;31062;49.678;24.560;2023-01-08T07:05:10;12.68;;;6.43;;
45326;SDS011;31062;49.678;24.560;2023-01-08T07:07:56;8.50;;;5.32;;
45326;SDS011;31062;49.678;24.560;2023-01-08T07:10:42;7.30;;;4.43;;
45326;SDS011;31062;49.678;24.560;2023-01-08T07:13:28;9.73;;;5.88;;
45326;SDS011;31062;49.678;24.560;2023-01-08T07:16:13;11.60;;;6.35;;
45326;SDS011;31062;49.678;24.560;2023-01-08T07:19:00;8.30;;;4.90;;
45326;SDS011;31062;49.678;24.560;2023-01-08T07:21:45;12.50;;;6.95;;
45326;SDS011;31062;49.678;24.560;2023-01-08T07:24:31;16.65;;;7.45;;
45326;SDS011;31062;49.678;24.560;2023-01-08T07:27:22;12.53;;;6.17;;
45326;SDS011;31062;49.678;24.560;2023-01-08T07:30:08;13.70;;;7.18;;
45326;SDS011;31062;49.678;24.560;2023-01-08T07:33:13;9.95;;;5.75;;
45326;SDS011;31062;49.678;24.560;2023-01-08T07:35:58;14.18;;;6.05;;
45326;SDS011;31062;49.678;24.560;2023-01-08T07:38:45;15.55;;;8.45;;
45326;SDS011;31062;49.678;24.560;2023-01-08T07:41:30;10.45;;;6.70;;
45326;SDS011;31062;49.678;24.560;2023-01-08T07:44:16;12.98;;;8.35;;
45326;SDS011;31062;49.678;24.560;2023-01-08T07:47:02;20.73;;;10.65;;
45326;SDS011;31062;49.678;24.560;2023-01-08T07:49:47;16.17;;;7.53;;
45326;SDS011;31062;49.678;24.560;2023-01-08T07:52:33;12.85;;;7.13;;
45326;SDS011;31062;49.678;24.560;2023-01-08T07:55:18;12.60;;;6.43;;
45326;SDS011;31062;49.678;24.560;2023-01-08T07:58:08;15.48;;;7.10;;
45326;SDS011;31062;49.678;24.560;2023-01-08T08:00:56;10.23;;;6.18;;
45326;SDS011;31062;49.678;24.560;2023-01-08T08:03:44;16.00;;;7.72;;
45326;SDS011;31062;49.678;24.560;2023-01-08T08:06:31;16.45;;;7.00;;
45326;SDS011;31062;49.678;24.560;2023-01-08T08:09:16;16.73;;;7.65;;
45326;SDS011;31062;49.678;24.560;2023-01-08T08:12:02;15.27;;;7.10;;
45326;SDS011;31062;49.678;24.560;2023-01-08T08:14:48;14.40;;;7.40;;
45326;SDS011;31062;49.678;24.560;2023-01-08T08:17:34;18.17;;;7.60;;
45326;SDS011;31062;49.678;24.560;2023-01-08T08:20:22;16.08;;;8.35;;
45326;SDS011;31062;49.678;24.560;2023-01-08T08:23:18;23.08;;;8.50;;
45326;SDS011;31062;49.678;24.560;2023-01-08T08:26:13;14.70;;;7.13;;
45326;SDS011;31062;49.678;24.560;2023-01-08T08:28:58;21.58;;;14.20;;
45326;SDS011;31062;49.678;24.560;2023-01-08T08:31:44;15.38;;;6.97;;
45326;SDS011;31062;49.678;24.560;2023-01-08T08:34:29;15.43;;;8.75;;
45326;SDS011;31062;49.678;24.560;2023-01-08T08:37:23;17.58;;;7.90;;
45326;SDS011;31062;49.678;24.560;2023-01-08T08:40:42;16.83;;;8.77;;
45326;SDS011;31062;49.678;24.560;2023-01-08T08:43:35;13.85;;;7.75;;
45326;SDS011;31062;49.678;24.560;2023-01-08T08:46:22;16.75;;;8.55;;
45326;SDS011;31062;49.678;24.560;2023-01-08T08:49:19;17.70;;;8.07;;
45326;SDS011;31062;49.678;24.560;2023-01-08T08:52:04;17.73;;;8.27;;
45326;SDS011;31062;49.678;24.560;2023-01-08T08:54:50;15.35;;;7.32;;
45326;SDS011;31062;49.678;24.560;2023-01-08T08:57:36;14.90;;;7.78;;
45326;SDS011;31062;49.678;24.560;2023-01-08T09:00:21;13.57;;;7.75;;
45326;SDS011;31062;49.678;24.560;2023-01-08T09:03:11;16.17;;;8.93;;
45326;SDS011;31062;49.678;24.560;2023-01-08T09:05:59;27.45;;;10.27;;
45326;SDS011;31062;49.678;24.560;2023-01-08T09:08:46;18.73;;;9.30;;
45326;SDS011;31062;49.678;24.560;2023-01-08T09:11:31;17.40;;;8.98;;
45326;SDS011;31062;49.678;24.560;2023-01-08T09:14:17;16.60;;;9.20;;
45326;SDS011;31062;49.678;24.560;2023-01-08T09:17:03;20.90;;;9.93;;
45326;SDS011;31062;49.678;24.560;2023-01-08T09:19:49;22.88;;;11.10;;
45326;SDS011;31062;49.678;24.560;2023-01-08T09:22:34;21.42;;;10.20;;
45326;SDS011;31062;49.678;24.560;2023-01-08T09:25:23;12.45;;;7.75;;
45326;SDS011;31062;49.678;24.560;2023-01-08T09:28:10;13.18;;;7.55;;
45326;SDS011;31062;49.678;24.560;2023-01-08T09:31:01;19.60;;;9.25;;
45326;SDS011;31062;49.678;24.560;2023-01-08T09:33:49;14.18;;;7.18;;
45326;SDS011;31062;49.678;24.560;2023-01-08T09:36:35;16.25;;;6.93;;
45326;SDS011;31062;49.678;24.560;2023-01-08T09:39:21;17.67;;;9.30;;
45326;SDS011;31062;49.678;24.560;2023-01-08T09:42:07;17.38;;;9.23;;
45326;SDS011;31062;49.678;24.560;2023-01-08T09:44:58;22.73;;;9.50;;
45326;SDS011;31062;49.678;24.560;2023-01-08T09:47:46;23.33;;;10.68;;
45326;SDS011;31062;49.678;24.560;2023-01-08T09:50:33;23.77;;;9.82;;
45326;SDS011;31062;49.678;24.560;2023-01-08T09:53:19;21.15;;;9.35;;
45326;SDS011;31062;49.678;24.560;2023-01-08T09:56:09;14.98;;;7.78;;
45326;SDS011;31062;49.678;24.560;2023-01-08T09:59:03;15.73;;;9.75;;
45326;SDS011;31062;49.678;24.560;2023-01-08T10:01:50;21.77;;;10.23;;
45326;SDS011;31062;49.678;24.560;2023-01-08T10:04:38;23.35;;;10.00;;
45326;SDS011;31062;49.678;24.560;2023-01-08T10:07:26;20.23;;;11.02;;
45326;SDS011;31062;49.678;24.560;2023-01-08T10:10:19;18.50;;;10.80;;
45326;SDS011;31062;49.678;24.560;2023-01-08T10:13:09;22.13;;;10.10;;
45326;SDS011;31062;49.678;24.560;2023-01-08T10:15:57;18.58;;;8.98;;
45326;SDS011;31062;49.678;24.560;2023-01-08T10:18:44;20.92;;;10.35;;
45326;SDS011;31062;49.678;24.560;2023-01-08T10:21:31;24.15;;;10.32;;
45326;SDS011;31062;49.678;24.560;2023-01-08T10:24:35;18.45;;;9.25;;
45326;SDS011;31062;49.678;24.560;2023-01-08T10:27:23;21.67;;;10.20;;
45326;SDS011;31062;49.678;24.560;2023-01-08T10:30:13;21.88;;;11.13;;
45326;SDS011;31062;49.678;24.560;2023-01-08T10:33:23;21.00;;;11.43;;
45326;SDS011;31062;49.678;24.560;2023-01-08T10:36:14;16.65;;;8.57;;
45326;SDS011;31062;49.678;24.560;2023-01-08T10:39:03;20.98;;;10.77;;
45326;SDS011;31062;49.678;24.560;2023-01-08T10:41:51;21.50;;;9.20;;
45326;SDS011;31062;49.678;24.560;2023-01-08T10:44:51;16.08;;;7.22;;
45326;SDS011;31062;49.678;24.560;2023-01-08T10:47:43;17.08;;;9.77;;
45326;SDS011;31062;49.678;24.560;2023-01-08T10:50:32;20.73;;;10.63;;
45326;SDS011;31062;49.678;24.560;2023-01-08T10:53:23;23.63;;;12.15;;
45326;SDS011;31062;49.678;24.560;2023-01-08T10:56:25;18.83;;;10.38;;
45326;SDS011;31062;49.678;24.560;2023-01-08T10:59:18;27.02;;;11.38;;
45326;SDS011;31062;49.678;24.560;2023-01-08T11:02:10;26.15;;;12.10;;
45326;SDS011;31062;49.678;24.560;2023-01-08T11:05:12;23.70;;;12.20;;
45326;SDS011;31062;49.678;24.560;2023-01-08T11:07:57;24.98;;;11.07;;
45326;SDS011;31062;49.678;24.560;2023-01-08T11:10:51;21.25;;;10.45;;
45326;SDS011;31062;49.678;24.560;2023-01-08T11:13:39;20.00;;;10.55;;
45326;SDS011;31062;49.678;24.560;2023-01-08T11:16:37;25.20;;;10.77;;
45326;SDS011;31062;49.678;24.560;2023-01-08T11:19:26;19.20;;;10.00;;
45326;SDS011;31062;49.678;24.560;2023-01-08T11:22:23;25.45;;;11.73;;
45326;SDS011;31062;49.678;24.560;2023-01-08T11:25:13;23.25;;;11.13;;
45326;SDS011;31062;49.678;24.560;2023-01-08T11:28:04;23.10;;;11.52;;
45326;SDS011;31062;49.678;24.560;2023-01-08T11:30:54;17.85;;;10.13;;
45326;SDS011;31062;49.678;24.560;2023-01-08T11:33:49;12.50;;;7.30;;
45326;SDS011;31062;49.678;24.560;2023-01-08T11:36:56;19.15;;;9.75;;
45326;SDS011;31062;49.678;24.560;2023-01-08T11:39:47;15.55;;;9.38;;
45326;SDS011;31062;49.678;24.560;2023-01-08T11:43:00;20.33;;;10.48;;
45326;SDS011;31062;49.678;24.560;2023-01-08T12:02:05;20.30;;;9.80;;
45326;SDS011;31062;49.678;24.560;2023-01-08T12:07:42;21.90;;;9.70;;
45326;SDS011;31062;49.678;24.560;2023-01-08T12:26:10;18.25;;;10.18;;
45326;SDS011;31062;49.678;24.560;2023-01-08T12:35:14;23.58;;;10.32;;
45326;SDS011;31062;49.678;24.560;2023-01-08T12:38:10;21.52;;;11.27;;
45326;SDS011;31062;49.678;24.560;2023-01-08T12:41:03;19.77;;;10.02;;
45326;SDS011;31062;49.678;24.560;2023-01-08T12:46:45;20.73;;;10.48;;
45326;SDS011;31062;49.678;24.560;2023-01-08T12:49:39;26.42;;;11.02;;
45326;SDS011;31062;49.678;24.560;2023-01-08T12:52:36;22.55;;;11.77;;
45326;SDS011;31062;49.678;24.560;2023-01-08T12:56:03;27.95;;;12.95;;
45326;SDS011;31062;49.678;24.560;2023-01-08T13:08:03;20.38;;;9.57;;
45326;SDS011;31062;49.678;24.560;2023-01-08T13:10:52;16.65;;;9.07;;
45326;SDS011;31062;49.678;24.560;2023-01-08T13:13:39;17.58;;;9.82;;
45326;SDS011;31062;49.678;24.560;2023-01-08T13:16:29;20.08;;;10.02;;
45326;SDS011;31062;49.678;24.560;2023-01-08T13:19:34;22.65;;;10.93;;
45326;SDS011;31062;49.678;24.560;2023-01-08T13:22:26;14.63;;;8.35;;
45326;SDS011;31062;49.678;24.560;2023-01-08T13:28:04;19.10;;;9.48;;
45326;SDS011;31062;49.678;24.560;2023-01-08T13:31:26;24.48;;;10.48;;
45326;SDS011;31062;49.678;24.560;2023-01-08T13:34:17;18.52;;;10.20;;
45326;SDS011;31062;49.678;24.560;2023-01-08T13:37:25;20.73;;;10.85;;
45326;SDS011;31062;49.678;24.560;2023-01-08T13:40:55;22.27;;;10.65;;
45326;SDS011;31062;49.678;24.560;2023-01-08T13:43:38;20.42;;;9.65;;
45326;SDS011;31062;49.678;24.560;2023-01-08T13:46:30;21.95;;;11.13;;
45326;SDS011;31062;49.678;24.560;2023-01-08T13:49:31;15.23;;;8.15;;
45326;SDS011;31062;49.678;24.560;2023-01-08T13:52:40;17.73;;;8.98;;
45326;SDS011;31062;49.678;24.560;2023-01-08T13:55:34;17.75;;;9.30;;
45326;SDS011;31062;49.678;24.560;2023-01-08T13:58:34;20.30;;;9.63;;
45326;SDS011;31062;49.678;24.560;2023-01-08T14:01:25;22.83;;;10.63;;
45326;SDS011;31062;49.678;24.560;2023-01-08T14:04:18;25.48;;;10.32;;
45326;SDS011;31062;49.678;24.560;2023-01-08T14:07:09;20.27;;;9.68;;
45326;SDS011;31062;49.678;24.560;2023-01-08T14:10:05;20.15;;;10.65;;
45326;SDS011;31062;49.678;24.560;2023-01-08T14:12:55;19.23;;;9.52;;
45326;SDS011;31062;49.678;24.560;2023-01-08T14:15:58;19.80;;;10.00;;
45326;SDS011;31062;49.678;24.560;2023-01-08T14:18:46;18.77;;;9.50;;
45326;SDS011;31062;49.678;24.560;2023-01-08T14:21:33;22.50;;;10.52;;
45326;SDS011;31062;49.678;24.560;2023-01-08T14:24:19;20.13;;;7.43;;
45326;SDS011;31062;49.678;24.560;2023-01-08T14:27:18;17.65;;;9.32;;
45326;SDS011;31062;49.678;24.560;2023-01-08T14:30:14;23.88;;;10.05;;
45326;SDS011;31062;49.678;24.560;2023-01-08T14:33:01;20.55;;;10.38;;
45326;SDS011;31062;49.678;24.560;2023-01-08T14:35:51;24.38;;;9.88;;
45326;SDS011;31062;49.678;24.560;2023-01-08T14:38:42;17.95;;;9.32;;
45326;SDS011;31062;49.678;24.560;2023-01-08T14:41:50;20.50;;;10.63;;
45326;SDS011;31062;49.678;24.560;2023-01-08T14:45:20;21.00;;;10.48;;
45326;SDS011;31062;49.678;24.560;2023-01-08T14:48:43;21.75;;;9.75;;
45326;SDS011;31062;49.678;24.560;2023-01-08T14:54:58;17.95;;;9.15;;
45326;SDS011;31062;49.678;24.560;2023-01-08T14:57:48;20.95;;;9.40;;
45326;SDS011;31062;49.678;24.560;2023-01-08T15:00:40;20.17;;;9.70;;
45326;SDS011;31062;49.678;24.560;2023-01-08T15:04:13;17.30;;;8.85;;
45326;SDS011;31062;49.678;24.560;2023-01-08T15:07:21;18.42;;;9.00;;
45326;SDS011;31062;49.678;24.560;2023-01-08T15:13:23;18.95;;;9.82;;
45326;SDS011;31062;49.678;24.560;2023-01-08T15:19:40;16.92;;;8.52;;
45326;SDS011;31062;49.678;24.560;2023-01-08T15:22:52;15.68;;;7.32;;
45326;SDS011;31062;49.678;24.560;2023-01-08T15:25:38;13.98;;;7.72;;
45326;SDS011;31062;49.678;24.560;2023-01-08T15:28:31;15.88;;;8.20;;
45326;SDS011;31062;49.678;24.560;2023-01-08T15:31:43;16.27;;;7.28;;
45326;SDS011;31062;49.678;24.560;2023-01-08T15:34:37;14.30;;;8.10;;
45326;SDS011;31062;49.678;24.560;2023-01-08T15:37:23;15.95;;;7.90;;
45326;SDS011;31062;49.678;24.560;2023-01-08T15:40:10;17.17;;;8.45;;
45326;SDS011;31062;49.678;24.560;2023-01-08T15:42:56;15.73;;;8.43;;
45326;SDS011;31062;49.678;24.560;2023-01-08T15:45:54;15.60;;;8.20;;
45326;SDS011;31062;49.678;24.560;2023-01-08T15:48:40;17.77;;;8.90;;
45326;SDS011;31062;49.678;24.560;2023-01-08T15:51:26;14.90;;;8.45;;
45326;SDS011;31062;49.678;24.560;2023-01-08T15:54:16;14.35;;;8.38;;
45326;SDS011;31062;49.678;24.560;2023-01-08T15:57:03;15.45;;;8.50;;
45326;SDS011;31062;49.678;24.560;2023-01-08T15:59:49;18.00;;;7.95;;
45326;SDS011;31062;49.678;24.560;2023-01-08T16:02:43;15.90;;;8.75;;
45326;SDS011;31062;49.678;24.560;2023-01-08T16:05:34;19.92;;;9.95;;
45326;SDS011;31062;49.678;24.560;2023-01-08T16:08:21;17.35;;;8.57;;
45326;SDS011;31062;49.678;24.560;2023-01-08T16:11:06;39.03;;;16.60;;
45326;SDS011;31062;49.678;24.560;2023-01-08T16:13:52;18.48;;;9.82;;
45326;SDS011;31062;49.678;24.560;2023-01-08T16:16:38;14.57;;;7.38;;
45326;SDS011;31062;49.678;24.560;2023-01-08T16:19:24;14.82;;;7.10;;
45326;SDS011;31062;49.678;24.560;2023-01-08T16:22:15;12.32;;;5.97;;
45326;SDS011;31062;49.678;24.560;2023-01-08T16:25:00;16.45;;;8.25;;
45326;SDS011;31062;49.678;24.560;2023-01-08T16:27:54;15.00;;;8.13;;
45326;SDS011;31062;49.678;24.560;2023-01-08T16:30:45;16.20;;;7.18;;
45326;SDS011;31062;49.678;24.560;2023-01-08T16:33:37;11.70;;;6.95;;
45326;SDS011;31062;49.678;24.560;2023-01-08T16:36:27;13.88;;;8.05;;
45326;SDS011;31062;49.678;24.560;2023-01-08T16:39:18;13.13;;;7.82;;
45326;SDS011;31062;49.678;24.560;2023-01-08T16:42:06;11.50;;;6.82;;
45326;SDS011;31062;49.678;24.560;2023-01-08T16:45:21;15.60;;;7.32;;
45326;SDS011;31062;49.678;24.560;2023-01-08T16:48:53;15.93;;;7.95;;
45326;SDS011;31062;49.678;24.560;2023-01-08T16:51:52;14.18;;;7.13;;
45326;SDS011;31062;49.678;24.560;2023-01-08T16:54:39;16.02;;;6.82;;
45326;SDS011;31062;49.678;24.560;2023-01-08T16:57:25;14.10;;;8.13;;
45326;SDS011;31062;49.678;24.560;2023-01-08T17:00:21;13.98;;;6.75;;
45326;SDS011;31062;49.678;24.560;2023-01-08T17:03:10;8.82;;;4.70;;
45326;SDS011;31062;49.678;24.560;2023-01-08T17:05:55;14.27;;;8.80;;
45326;SDS011;31062;49.678;24.560;2023-01-08T17:08:49;19.48;;;8.18;;
45326;SDS011;31062;49.678;24.560;2023-01-08T17:11:36;14.27;;;8.30;;
45326;SDS011;31062;49.678;24.560;2023-01-08T17:14:24;11.45;;;6.05;;
45326;SDS011;31062;49.678;24.560;2023-01-08T17:17:10;13.65;;;7.38;;
45326;SDS011;31062;49.678;24.560;2023-01-08T17:19:56;18.42;;;10.13;;
45326;SDS011;31062;49.678;24.560;2023-01-08T17:22:43;15.82;;;8.57;;
45326;SDS011;31062;49.678;24.560;2023-01-08T17:25:29;10.30;;;7.18;;
45326;SDS011;31062;49.678;24.560;2023-01-08T17:28:44;13.38;;;8.18;;
45326;SDS011;31062;49.678;24.560;2023-01-08T17:31:33;14.20;;;8.25;;
45326;SDS011;31062;49.678;24.560;2023-01-08T17:34:24;16.08;;;9.43;;
45326;SDS011;31062;49.678;24.560;2023-01-08T17:37:10;16.23;;;8.30;;
45326;SDS011;31062;49.678;24.560;2023-01-08T17:39:56;16.88;;;7.18;;
45326;SDS011;31062;49.678;24.560;2023-01-08T17:42:41;13.38;;;7.05;;
45326;SDS011;31062;49.678;24.560;2023-01-08T17:45:28;12.90;;;6.90;;
45326;SDS011;31062;49.678;24.560;2023-01-08T17:48:17;15.48;;;8.20;;
45326;SDS011;31062;49.678;24.560;2023-01-08T17:51:04;18.40;;;7.53;;
45326;SDS011;31062;49.678;24.560;2023-01-08T17:53:56;14.48;;;6.82;;
45326;SDS011;31062;49.678;24.560;2023-01-08T17:56:51;12.45;;;6.90;;
45326;SDS011;31062;49.678;24.560;2023-01-08T17:59:48;12.52;;;6.50;;
45326;SDS011;31062;49.678;24.560;2023-01-08T18:02:34;11.30;;;6.68;;
45326;SDS011;31062;49.678;24.560;2023-01-08T18:05:20;12.45;;;7.78;;